^^
Meteo Knjazevac Station Historical Data
Daily Summary for April 22, 2021 Units:  Both    English   Metric
Daily Weekly Monthly Yearly Custom
  High: Low: Average:
Temperature: 20 °F /  -6.7 °C 16 °F /  -8.9 °C 17.9 °F /  -7.8 °C
Dew Point: 18.2 °F /  -7.7 °C 14.3 °F /  -9.8 °C 16.1 °F /  -8.8 °C
Humidity: 94% 91% 93%
Wind Speed: 3mph /  4.8km/h - 1.6mph /  2.6km/h
Wind Gust: 5mph /  8km/h - -
Wind- - WNW
Pressure: 30.36 in /  1028 hPa 30.34 in /  1027.3 hPa -
Precipitation: 0.00 in /  0 mm    
Historical Graphs
 
 
Tabular Data for April 22, 2021
Time Temperature Dew Point Pressure Wind Wind Speed Wind Gust Humidity Rainfall Rate (Hourly) solar Conditions
00:00 20 °F /  -6.7 °C 17.8 °F /  -7.9 °C 30.36in /  1028hPa West 3mph /  4.8km/h 4mph /  6.4km/h 91% 0.00in /  0mm 0 W/m2
00:10 19.8 °F /  -6.8 °C 17.6 °F /  -8 °C 30.35in /  1027.7hPa WNW 2mph /  3.2km/h 5mph /  8km/h 91% 0.00in /  0mm 0 W/m2
00:20 19.9 °F /  -6.7 °C 18.2 °F /  -7.7 °C 30.35in /  1027.7hPa WNW 2mph /  3.2km/h 3mph /  4.8km/h 93% 0.00in /  0mm 0 W/m2
00:30 19.8 °F /  -6.8 °C 17.6 °F /  -8 °C 30.35in /  1027.7hPa WNW 1mph /  1.6km/h 3mph /  4.8km/h 91% 0.00in /  0mm 0 W/m2
00:40 19.6 °F /  -6.9 °C 17.4 °F /  -8.1 °C 30.35in /  1027.7hPa WNW 2mph /  3.2km/h 2mph /  3.2km/h 91% 0.00in /  0mm 0 W/m2
00:50 19.3 °F /  -7.1 °C 17.1 °F /  -8.3 °C 30.35in /  1027.7hPa West 1mph /  1.6km/h 3mph /  4.8km/h 91% 0.00in /  0mm 0 W/m2
01:00 19 °F /  -7.2 °C 16.8 °F /  -8.4 °C 30.35in /  1027.7hPa West 2mph /  3.2km/h 4mph /  6.4km/h 91% 0.00in /  0mm 0 W/m2
01:10 18.7 °F /  -7.4 °C 16.5 °F /  -8.6 °C 30.35in /  1027.7hPa WNW 2mph /  3.2km/h 3mph /  4.8km/h 91% 0.00in /  0mm 0 W/m2
01:20 18.5 °F /  -7.5 °C 16.6 °F /  -8.6 °C 30.35in /  1027.7hPa WNW 2mph /  3.2km/h 3mph /  4.8km/h 92% 0.00in /  0mm 0 W/m2
01:30 18.5 °F /  -7.5 °C 16.3 °F /  -8.7 °C 30.35in /  1027.7hPa WNW 2mph /  3.2km/h 3mph /  4.8km/h 91% 0.00in /  0mm 0 W/m2
01:40 18.2 °F /  -7.7 °C 16.5 °F /  -8.6 °C 30.35in /  1027.7hPa WNW 2mph /  3.2km/h 3mph /  4.8km/h 93% 0.00in /  0mm 0 W/m2
01:50 18.3 °F /  -7.6 °C 16.6 °F /  -8.6 °C 30.35in /  1027.7hPa WNW 2mph /  3.2km/h 4mph /  6.4km/h 93% 0.00in /  0mm 0 W/m2
02:00 18.5 °F /  -7.5 °C 17.1 °F /  -8.3 °C 30.35in /  1027.7hPa NW 2mph /  3.2km/h 3mph /  4.8km/h 94% 0.00in /  0mm 0 W/m2
02:10 18.9 °F /  -7.3 °C 17.4 °F /  -8.1 °C 30.35in /  1027.7hPa NNW 1mph /  1.6km/h 3mph /  4.8km/h 94% 0.00in /  0mm 0 W/m2
02:20 18.9 °F /  -7.3 °C 17.4 °F /  -8.1 °C 30.35in /  1027.7hPa NNW 1mph /  1.6km/h 2mph /  3.2km/h 94% 0.00in /  0mm 0 W/m2
02:30 18.9 °F /  -7.3 °C 17.4 °F /  -8.1 °C 30.35in /  1027.7hPa North 1mph /  1.6km/h 2mph /  3.2km/h 94% 0.00in /  0mm 0 W/m2
02:40 18.5 °F /  -7.5 °C 16.8 °F /  -8.4 °C 30.35in /  1027.7hPa Calm   2mph /  3.2km/h 93% 0.00in /  0mm 0 W/m2
02:50 18.5 °F /  -7.5 °C 16.8 °F /  -8.4 °C 30.35in /  1027.7hPa NNW 1mph /  1.6km/h 3mph /  4.8km/h 93% 0.00in /  0mm 0 W/m2
03:00 18 °F /  -7.8 °C 15.8 °F /  -9 °C 30.34in /  1027.3hPa WNW 1mph /  1.6km/h 2mph /  3.2km/h 91% 0.00in /  0mm 0 W/m2
03:10 17.7 °F /  -7.9 °C 15.5 °F /  -9.2 °C 30.34in /  1027.3hPa WNW 2mph /  3.2km/h 2mph /  3.2km/h 91% 0.00in /  0mm 0 W/m2
03:20 17.4 °F /  -8.1 °C 15.2 °F /  -9.3 °C 30.34in /  1027.3hPa WNW 2mph /  3.2km/h 4mph /  6.4km/h 91% 0.00in /  0mm 0 W/m2
03:30 17.2 °F /  -8.2 °C 15.6 °F /  -9.1 °C 30.34in /  1027.3hPa WNW 2mph /  3.2km/h 5mph /  8km/h 93% 0.00in /  0mm 0 W/m2
03:40 17.6 °F /  -8 °C 16.2 °F /  -8.8 °C 30.34in /  1027.3hPa WNW 2mph /  3.2km/h 5mph /  8km/h 94% 0.00in /  0mm 0 W/m2
03:50 17.4 °F /  -8.1 °C 15.7 °F /  -9.1 °C 30.34in /  1027.3hPa WNW 2mph /  3.2km/h 3mph /  4.8km/h 93% 0.00in /  0mm 0 W/m2
04:00 17.2 °F /  -8.2 °C 15.6 °F /  -9.1 °C 30.34in /  1027.3hPa Calm   3mph /  4.8km/h 93% 0.00in /  0mm 0 W/m2
04:10 17.1 °F /  -8.3 °C 15.4 °F /  -9.2 °C 30.34in /  1027.3hPa West 2mph /  3.2km/h 3mph /  4.8km/h 93% 0.00in /  0mm 0 W/m2
04:20 16.9 °F /  -8.4 °C 15.2 °F /  -9.3 °C 30.34in /  1027.3hPa West 1mph /  1.6km/h 3mph /  4.8km/h 93% 0.00in /  0mm 0 W/m2
04:30 16.5 °F /  -8.6 °C 14.9 °F /  -9.5 °C 30.34in /  1027.3hPa WNW 2mph /  3.2km/h 3mph /  4.8km/h 93% 0.00in /  0mm 0 W/m2
04:40 16.5 °F /  -8.6 °C 14.9 °F /  -9.5 °C 30.34in /  1027.3hPa WNW 2mph /  3.2km/h 4mph /  6.4km/h 93% 0.00in /  0mm 0 W/m2
04:50 16.5 °F /  -8.6 °C 14.9 °F /  -9.5 °C 30.34in /  1027.3hPa WNW 1mph /  1.6km/h 3mph /  4.8km/h 93% 0.00in /  0mm 0 W/m2
05:00 16.3 °F /  -8.7 °C 14.7 °F /  -9.6 °C 30.34in /  1027.3hPa WNW 2mph /  3.2km/h 3mph /  4.8km/h 93% 0.00in /  0mm 0 W/m2
05:10 16.4 °F /  -8.7 °C 15 °F /  -9.4 °C 30.34in /  1027.3hPa West 1mph /  1.6km/h 3mph /  4.8km/h 94% 0.00in /  0mm 0 W/m2
05:20 16.2 °F /  -8.8 °C 14.5 °F /  -9.7 °C 30.34in /  1027.3hPa WNW 2mph /  3.2km/h 3mph /  4.8km/h 93% 0.00in /  0mm 0 W/m2
05:30 16.2 °F /  -8.8 °C 14.5 °F /  -9.7 °C 30.35in /  1027.7hPa WNW 2mph /  3.2km/h 4mph /  6.4km/h 93% 0.00in /  0mm 0 W/m2
05:40 16.2 °F /  -8.8 °C 14.5 °F /  -9.7 °C 30.35in /  1027.7hPa WNW 1mph /  1.6km/h 2mph /  3.2km/h 93% 0.00in /  0mm 0 W/m2
05:50 16 °F /  -8.9 °C 14.3 °F /  -9.8 °C 30.35in /  1027.7hPa WNW 1mph /  1.6km/h 3mph /  4.8km/h 93% 0.00in /  0mm 0 W/m2
Knjazevac, Serbia
Compliments of Weather Underground - 2 mb